map of LDY home
LDY - Airport
Location
City:  Londonderry, County Londonderry, Northern Ireland, United Kingdom
Name:Eglinton
ICAO:EGAE
IATA:LDY

Details
Type:Airport (Aerodrome, Airfield)
Latitude:5502'34"N (55.042778)
Longitude:709'40"W (-7.161110)
Datum:WGS 1984
Elevation:22 ft (7 m)
Variation:3.59W (WMM2015 magnetic declination)
0.17 annual change
Runways:2
Longest:6076 × 147 ft (1852 × 45 m), paved

Time
Time Zone:UTC+0 (DST+1)
Local Time:

Weather
METAR:EGAE 191950Z 10004KT 9999 FEW018 OVC020 15/13 Q1018

Related Locations
Nearby:
Farthest:SZS: 11831 mi / 19041 km
Ryan's Creek, Stewart Island, STL, NZ

Find:

   beyond  
but within

Other Information
Maps:
NOTAMs:
Links:
Sources:

  
  • flag of United Kingdom
  • flag of Northern Ireland
  

Sectional Chart

Flight Planning
at skyvector.com

Satellite Image

Google Maps Satellite view

 

Copyright © 2004-2018 Karl L. Swartz. All rights reserved.
The Great Circle Mapper name and logo are trademarks of the Great Circle Mapper.
All other trademarks mentioned herein belong to their respective owners.
Please see credits for attibutions and further copyright information.

  Follow gcmap on Facebook Follow gcmap on Twitter Follow gcmap on Google+ GCmap on LinkedIn

hCard Microformat

Geo Microformat